sensor_id;sensor_type;location;lat;lon;timestamp;temperature;humidity
16867;DHT22;8550;52.596;13.320;2023-05-16T00:02:52;14.10;99.90
16867;DHT22;8550;52.596;13.320;2023-05-16T00:07:54;14.10;99.90
16867;DHT22;8550;52.596;13.320;2023-05-16T00:12:57;14.10;99.90
16867;DHT22;8550;52.596;13.320;2023-05-16T00:18:01;14.10;99.90
16867;DHT22;8550;52.596;13.320;2023-05-16T00:23:03;14.00;99.90
16867;DHT22;8550;52.596;13.320;2023-05-16T00:28:06;14.00;99.90
16867;DHT22;8550;52.596;13.320;2023-05-16T00:33:08;13.90;99.90
16867;DHT22;8550;52.596;13.320;2023-05-16T00:38:10;13.90;99.90
16867;DHT22;8550;52.596;13.320;2023-05-16T00:43:13;13.90;99.90
16867;DHT22;8550;52.596;13.320;2023-05-16T00:48:15;13.80;99.90
16867;DHT22;8550;52.596;13.320;2023-05-16T00:53:18;13.70;99.90
16867;DHT22;8550;52.596;13.320;2023-05-16T00:58:25;13.70;99.90
16867;DHT22;8550;52.596;13.320;2023-05-16T01:03:28;13.50;99.90
16867;DHT22;8550;52.596;13.320;2023-05-16T01:08:31;13.30;99.90
16867;DHT22;8550;52.596;13.320;2023-05-16T01:13:41;13.20;99.90
16867;DHT22;8550;52.596;13.320;2023-05-16T01:18:56;13.10;99.90
16867;DHT22;8550;52.596;13.320;2023-05-16T01:24:08;13.00;99.90
16867;DHT22;8550;52.596;13.320;2023-05-16T01:29:15;12.90;99.90
16867;DHT22;8550;52.596;13.320;2023-05-16T01:34:17;12.90;99.90
16867;DHT22;8550;52.596;13.320;2023-05-16T01:39:21;12.90;99.90
16867;DHT22;8550;52.596;13.320;2023-05-16T01:44:31;12.80;99.90
16867;DHT22;8550;52.596;13.320;2023-05-16T01:49:35;12.70;99.90
16867;DHT22;8550;52.596;13.320;2023-05-16T01:54:42;12.50;99.90
16867;DHT22;8550;52.596;13.320;2023-05-16T01:59:47;12.50;99.90
16867;DHT22;8550;52.596;13.320;2023-05-16T02:04:49;12.30;99.90
16867;DHT22;8550;52.596;13.320;2023-05-16T02:09:51;12.20;99.90
16867;DHT22;8550;52.596;13.320;2023-05-16T02:14:55;12.10;99.90
16867;DHT22;8550;52.596;13.320;2023-05-16T02:19:57;12.00;99.90
16867;DHT22;8550;52.596;13.320;2023-05-16T02:25:06;11.80;99.90
16867;DHT22;8550;52.596;13.320;2023-05-16T02:30:11;11.90;99.90
16867;DHT22;8550;52.596;13.320;2023-05-16T02:35:13;11.70;99.90
16867;DHT22;8550;52.596;13.320;2023-05-16T02:40:15;11.70;99.90
16867;DHT22;8550;52.596;13.320;2023-05-16T02:45:18;11.60;99.90
16867;DHT22;8550;52.596;13.320;2023-05-16T02:50:20;11.70;99.90
16867;DHT22;8550;52.596;13.320;2023-05-16T02:55:22;11.70;99.90
16867;DHT22;8550;52.596;13.320;2023-05-16T03:00:26;11.70;99.90
16867;DHT22;8550;52.596;13.320;2023-05-16T03:05:28;11.60;99.90
16867;DHT22;8550;52.596;13.320;2023-05-16T03:10:30;11.60;99.90
16867;DHT22;8550;52.596;13.320;2023-05-16T03:15:33;11.60;99.90
16867;DHT22;8550;52.596;13.320;2023-05-16T03:20:36;11.70;99.90
16867;DHT22;8550;52.596;13.320;2023-05-16T03:25:38;11.70;99.90
16867;DHT22;8550;52.596;13.320;2023-05-16T03:30:41;11.70;99.90
16867;DHT22;8550;52.596;13.320;2023-05-16T03:35:43;11.70;99.90
16867;DHT22;8550;52.596;13.320;2023-05-16T03:40:46;11.60;99.90
16867;DHT22;8550;52.596;13.320;2023-05-16T03:45:49;11.60;99.90
16867;DHT22;8550;52.596;13.320;2023-05-16T03:50:51;11.70;99.90
16867;DHT22;8550;52.596;13.320;2023-05-16T03:55:53;11.60;99.90
16867;DHT22;8550;52.596;13.320;2023-05-16T04:00:57;11.60;99.90
16867;DHT22;8550;52.596;13.320;2023-05-16T04:05:59;11.50;99.90
16867;DHT22;8550;52.596;13.320;2023-05-16T04:11:01;11.60;99.90
16867;DHT22;8550;52.596;13.320;2023-05-16T04:16:05;11.50;99.90
16867;DHT22;8550;52.596;13.320;2023-05-16T04:21:07;11.50;99.90
16867;DHT22;8550;52.596;13.320;2023-05-16T04:26:11;11.60;99.90
16867;DHT22;8550;52.596;13.320;2023-05-16T04:31:15;11.70;99.90
16867;DHT22;8550;52.596;13.320;2023-05-16T04:36:17;11.50;99.90
16867;DHT22;8550;52.596;13.320;2023-05-16T04:41:20;11.40;99.90
16867;DHT22;8550;52.596;13.320;2023-05-16T04:46:23;11.40;99.90
16867;DHT22;8550;52.596;13.320;2023-05-16T04:51:26;11.40;99.90
16867;DHT22;8550;52.596;13.320;2023-05-16T04:56:28;11.50;99.90
16867;DHT22;8550;52.596;13.320;2023-05-16T05:01:31;11.40;99.90
16867;DHT22;8550;52.596;13.320;2023-05-16T05:06:33;11.30;99.90
16867;DHT22;8550;52.596;13.320;2023-05-16T05:11:35;11.30;99.90
16867;DHT22;8550;52.596;13.320;2023-05-16T05:16:39;11.30;99.90
16867;DHT22;8550;52.596;13.320;2023-05-16T05:21:40;11.30;99.90
16867;DHT22;8550;52.596;13.320;2023-05-16T05:26:43;11.30;99.90
16867;DHT22;8550;52.596;13.320;2023-05-16T05:31:46;11.30;99.90
16867;DHT22;8550;52.596;13.320;2023-05-16T05:36:48;11.20;99.90
16867;DHT22;8550;52.596;13.320;2023-05-16T05:41:51;11.40;99.90
16867;DHT22;8550;52.596;13.320;2023-05-16T05:46:54;11.30;99.90
16867;DHT22;8550;52.596;13.320;2023-05-16T05:51:59;11.40;99.90
16867;DHT22;8550;52.596;13.320;2023-05-16T05:57:01;11.40;99.90
16867;DHT22;8550;52.596;13.320;2023-05-16T06:02:10;11.50;99.90
16867;DHT22;8550;52.596;13.320;2023-05-16T06:07:12;11.50;99.90
16867;DHT22;8550;52.596;13.320;2023-05-16T06:12:15;11.70;99.90
16867;DHT22;8550;52.596;13.320;2023-05-16T06:17:19;11.60;99.90
16867;DHT22;8550;52.596;13.320;2023-05-16T06:22:21;11.50;99.90
16867;DHT22;8550;52.596;13.320;2023-05-16T06:27:23;11.60;99.90
16867;DHT22;8550;52.596;13.320;2023-05-16T06:32:26;11.70;99.90
16867;DHT22;8550;52.596;13.320;2023-05-16T06:37:28;11.60;99.90
16867;DHT22;8550;52.596;13.320;2023-05-16T06:42:31;11.60;99.90
16867;DHT22;8550;52.596;13.320;2023-05-16T06:47:34;11.60;99.90
16867;DHT22;8550;52.596;13.320;2023-05-16T06:52:36;11.80;99.90
16867;DHT22;8550;52.596;13.320;2023-05-16T06:57:38;11.90;99.90
16867;DHT22;8550;52.596;13.320;2023-05-16T07:02:41;11.80;99.90
16867;DHT22;8550;52.596;13.320;2023-05-16T07:07:43;11.70;99.90
16867;DHT22;8550;52.596;13.320;2023-05-16T07:12:46;11.90;99.90
16867;DHT22;8550;52.596;13.320;2023-05-16T07:17:49;11.90;99.90
16867;DHT22;8550;52.596;13.320;2023-05-16T07:22:51;11.90;99.90
16867;DHT22;8550;52.596;13.320;2023-05-16T07:27:53;12.10;99.90
16867;DHT22;8550;52.596;13.320;2023-05-16T07:32:57;12.70;99.90
16867;DHT22;8550;52.596;13.320;2023-05-16T07:37:59;12.80;99.90
16867;DHT22;8550;52.596;13.320;2023-05-16T07:43:01;12.60;99.90
16867;DHT22;8550;52.596;13.320;2023-05-16T07:48:04;12.60;99.90
16867;DHT22;8550;52.596;13.320;2023-05-16T07:53:06;12.40;99.90
16867;DHT22;8550;52.596;13.320;2023-05-16T07:58:09;12.40;99.90
16867;DHT22;8550;52.596;13.320;2023-05-16T08:03:12;12.40;99.90
16867;DHT22;8550;52.596;13.320;2023-05-16T08:08:14;12.50;99.90
16867;DHT22;8550;52.596;13.320;2023-05-16T08:13:16;12.40;99.90
16867;DHT22;8550;52.596;13.320;2023-05-16T08:18:20;12.20;99.90
16867;DHT22;8550;52.596;13.320;2023-05-16T08:23:22;12.40;99.90
16867;DHT22;8550;52.596;13.320;2023-05-16T08:28:24;12.70;99.90
16867;DHT22;8550;52.596;13.320;2023-05-16T08:33:27;12.80;99.90
16867;DHT22;8550;52.596;13.320;2023-05-16T08:38:29;12.80;99.90
16867;DHT22;8550;52.596;13.320;2023-05-16T08:43:31;12.80;99.90
16867;DHT22;8550;52.596;13.320;2023-05-16T08:48:37;12.70;99.90
16867;DHT22;8550;52.596;13.320;2023-05-16T08:53:44;12.80;99.90
16867;DHT22;8550;52.596;13.320;2023-05-16T08:58:46;12.70;99.90
16867;DHT22;8550;52.596;13.320;2023-05-16T09:03:51;12.60;99.90
16867;DHT22;8550;52.596;13.320;2023-05-16T09:08:53;12.70;99.90
16867;DHT22;8550;52.596;13.320;2023-05-16T09:13:56;12.90;99.90
16867;DHT22;8550;52.596;13.320;2023-05-16T09:19:02;12.70;99.90
16867;DHT22;8550;52.596;13.320;2023-05-16T09:24:06;12.80;99.90
16867;DHT22;8550;52.596;13.320;2023-05-16T09:29:11;12.80;99.90
16867;DHT22;8550;52.596;13.320;2023-05-16T09:34:21;13.00;99.90
16867;DHT22;8550;52.596;13.320;2023-05-16T09:39:26;13.00;99.90
16867;DHT22;8550;52.596;13.320;2023-05-16T09:44:30;12.90;99.90
16867;DHT22;8550;52.596;13.320;2023-05-16T09:49:36;13.20;99.90
16867;DHT22;8550;52.596;13.320;2023-05-16T09:54:39;13.50;99.90
16867;DHT22;8550;52.596;13.320;2023-05-16T09:59:42;13.30;99.90
16867;DHT22;8550;52.596;13.320;2023-05-16T10:04:47;13.40;99.90
16867;DHT22;8550;52.596;13.320;2023-05-16T10:09:50;13.20;99.90
16867;DHT22;8550;52.596;13.320;2023-05-16T10:14:53;13.10;99.90
16867;DHT22;8550;52.596;13.320;2023-05-16T10:19:57;12.90;99.90
16867;DHT22;8550;52.596;13.320;2023-05-16T10:25:08;12.80;99.90
16867;DHT22;8550;52.596;13.320;2023-05-16T10:30:14;13.10;99.90
16867;DHT22;8550;52.596;13.320;2023-05-16T10:35:19;13.00;99.90
16867;DHT22;8550;52.596;13.320;2023-05-16T10:40:22;12.80;99.90
16867;DHT22;8550;52.596;13.320;2023-05-16T10:45:25;12.60;99.90
16867;DHT22;8550;52.596;13.320;2023-05-16T10:50:33;12.60;99.90
16867;DHT22;8550;52.596;13.320;2023-05-16T10:55:38;12.50;99.90
16867;DHT22;8550;52.596;13.320;2023-05-16T11:00:40;13.00;99.90
16867;DHT22;8550;52.596;13.320;2023-05-16T11:05:50;13.50;99.90
16867;DHT22;8550;52.596;13.320;2023-05-16T11:16:29;13.90;99.90
16867;DHT22;8550;52.596;13.320;2023-05-16T11:22:07;14.60;99.90
16867;DHT22;8550;52.596;13.320;2023-05-16T11:27:12;14.90;99.90
16867;DHT22;8550;52.596;13.320;2023-05-16T11:32:18;14.50;99.90
16867;DHT22;8550;52.596;13.320;2023-05-16T11:37:23;14.30;99.90
16867;DHT22;8550;52.596;13.320;2023-05-16T11:42:28;14.00;99.90
16867;DHT22;8550;52.596;13.320;2023-05-16T11:47:31;13.80;99.90
16867;DHT22;8550;52.596;13.320;2023-05-16T11:52:35;13.90;99.90
16867;DHT22;8550;52.596;13.320;2023-05-16T11:57:39;14.00;99.90
16867;DHT22;8550;52.596;13.320;2023-05-16T12:02:43;14.20;99.90
16867;DHT22;8550;52.596;13.320;2023-05-16T12:07:47;16.10;99.90
16867;DHT22;8550;52.596;13.320;2023-05-16T12:12:50;18.70;94.60
16867;DHT22;8550;52.596;13.320;2023-05-16T12:17:53;19.70;88.70
16867;DHT22;8550;52.596;13.320;2023-05-16T12:22:58;18.00;91.50
16867;DHT22;8550;52.596;13.320;2023-05-16T12:28:01;16.70;92.30
16867;DHT22;8550;52.596;13.320;2023-05-16T12:33:08;16.20;94.60
16867;DHT22;8550;52.596;13.320;2023-05-16T12:38:13;16.10;95.20
16867;DHT22;8550;52.596;13.320;2023-05-16T12:43:18;15.80;94.60
16867;DHT22;8550;52.596;13.320;2023-05-16T12:48:21;15.90;95.70
16867;DHT22;8550;52.596;13.320;2023-05-16T12:53:25;16.20;93.80
16867;DHT22;8550;52.596;13.320;2023-05-16T12:58:29;15.90;94.80
16867;DHT22;8550;52.596;13.320;2023-05-16T13:03:33;16.00;94.60
16867;DHT22;8550;52.596;13.320;2023-05-16T13:08:37;16.60;92.90
16867;DHT22;8550;52.596;13.320;2023-05-16T13:13:40;16.60;93.60
16867;DHT22;8550;52.596;13.320;2023-05-16T13:18:42;16.20;92.60
16867;DHT22;8550;52.596;13.320;2023-05-16T13:23:45;16.10;93.10
16867;DHT22;8550;52.596;13.320;2023-05-16T13:28:47;16.40;92.10
16867;DHT22;8550;52.596;13.320;2023-05-16T13:33:52;18.10;89.30
16867;DHT22;8550;52.596;13.320;2023-05-16T13:38:56;19.80;79.20
16867;DHT22;8550;52.596;13.320;2023-05-16T13:43:58;21.40;72.70
16867;DHT22;8550;52.596;13.320;2023-05-16T13:49:00;19.90;75.00
16867;DHT22;8550;52.596;13.320;2023-05-16T13:54:04;18.60;77.00
16867;DHT22;8550;52.596;13.320;2023-05-16T13:59:07;18.50;75.80
16867;DHT22;8550;52.596;13.320;2023-05-16T14:04:09;17.60;79.90
16867;DHT22;8550;52.596;13.320;2023-05-16T14:09:13;17.60;82.00
16867;DHT22;8550;52.596;13.320;2023-05-16T14:14:16;17.80;78.50
16867;DHT22;8550;52.596;13.320;2023-05-16T14:19:19;18.20;76.40
16867;DHT22;8550;52.596;13.320;2023-05-16T14:24:23;17.60;75.20
16867;DHT22;8550;52.596;13.320;2023-05-16T14:29:25;18.40;72.30
16867;DHT22;8550;52.596;13.320;2023-05-16T14:34:28;18.20;69.90
16867;DHT22;8550;52.596;13.320;2023-05-16T14:39:31;17.10;72.20
16867;DHT22;8550;52.596;13.320;2023-05-16T14:44:35;17.20;71.50
16867;DHT22;8550;52.596;13.320;2023-05-16T14:49:38;17.40;71.90
16867;DHT22;8550;52.596;13.320;2023-05-16T14:54:42;17.60;70.80
16867;DHT22;8550;52.596;13.320;2023-05-16T14:59:45;18.10;68.20
16867;DHT22;8550;52.596;13.320;2023-05-16T15:04:48;18.00;69.30
16867;DHT22;8550;52.596;13.320;2023-05-16T15:09:51;17.80;68.90
16867;DHT22;8550;52.596;13.320;2023-05-16T15:14:55;17.80;67.70
16867;DHT22;8550;52.596;13.320;2023-05-16T15:19:57;17.60;66.60
16867;DHT22;8550;52.596;13.320;2023-05-16T15:25:01;17.80;65.80
16867;DHT22;8550;52.596;13.320;2023-05-16T15:30:06;17.80;66.10
16867;DHT22;8550;52.596;13.320;2023-05-16T15:35:09;17.50;68.90
16867;DHT22;8550;52.596;13.320;2023-05-16T15:40:13;17.30;62.30
16867;DHT22;8550;52.596;13.320;2023-05-16T15:45:16;17.20;62.80
16867;DHT22;8550;52.596;13.320;2023-05-16T15:50:18;17.30;61.70
16867;DHT22;8550;52.596;13.320;2023-05-16T15:55:22;17.30;62.90
16867;DHT22;8550;52.596;13.320;2023-05-16T16:00:25;17.20;62.20
16867;DHT22;8550;52.596;13.320;2023-05-16T16:05:27;17.40;62.50
16867;DHT22;8550;52.596;13.320;2023-05-16T16:10:31;17.70;61.40
16867;DHT22;8550;52.596;13.320;2023-05-16T16:15:33;17.70;59.40
16867;DHT22;8550;52.596;13.320;2023-05-16T16:20:36;17.50;60.80
16867;DHT22;8550;52.596;13.320;2023-05-16T16:25:40;17.40;61.20
16867;DHT22;8550;52.596;13.320;2023-05-16T16:30:42;17.50;61.90
16867;DHT22;8550;52.596;13.320;2023-05-16T16:35:47;17.20;60.30
16867;DHT22;8550;52.596;13.320;2023-05-16T16:40:51;16.80;61.10
16867;DHT22;8550;52.596;13.320;2023-05-16T16:45:53;16.80;61.40
16867;DHT22;8550;52.596;13.320;2023-05-16T16:50:56;17.10;59.90
16867;DHT22;8550;52.596;13.320;2023-05-16T16:55:59;16.80;59.70
16867;DHT22;8550;52.596;13.320;2023-05-16T17:01:01;16.70;59.50
16867;DHT22;8550;52.596;13.320;2023-05-16T17:06:04;17.50;58.00
16867;DHT22;8550;52.596;13.320;2023-05-16T17:11:07;17.60;58.10
16867;DHT22;8550;52.596;13.320;2023-05-16T17:16:09;17.10;59.60
16867;DHT22;8550;52.596;13.320;2023-05-16T17:21:11;16.50;61.70
16867;DHT22;8550;52.596;13.320;2023-05-16T17:26:14;16.20;64.10
16867;DHT22;8550;52.596;13.320;2023-05-16T17:31:16;16.10;65.30
16867;DHT22;8550;52.596;13.320;2023-05-16T17:36:19;15.90;66.10
16867;DHT22;8550;52.596;13.320;2023-05-16T17:41:22;15.60;66.30
16867;DHT22;8550;52.596;13.320;2023-05-16T17:46:24;15.60;67.00
16867;DHT22;8550;52.596;13.320;2023-05-16T17:51:26;15.40;66.70
16867;DHT22;8550;52.596;13.320;2023-05-16T17:56:29;15.20;69.00
16867;DHT22;8550;52.596;13.320;2023-05-16T18:01:31;15.30;69.80
16867;DHT22;8550;52.596;13.320;2023-05-16T18:06:42;15.10;71.00
16867;DHT22;8550;52.596;13.320;2023-05-16T18:11:47;15.00;69.80
16867;DHT22;8550;52.596;13.320;2023-05-16T18:16:50;14.80;70.70
16867;DHT22;8550;52.596;13.320;2023-05-16T18:21:52;14.50;71.10
16867;DHT22;8550;52.596;13.320;2023-05-16T18:26:56;14.40;71.40
16867;DHT22;8550;52.596;13.320;2023-05-16T18:31:59;14.20;72.30
16867;DHT22;8550;52.596;13.320;2023-05-16T18:37:01;14.10;73.40
16867;DHT22;8550;52.596;13.320;2023-05-16T18:42:05;13.90;75.10
16867;DHT22;8550;52.596;13.320;2023-05-16T18:47:07;13.80;76.10
16867;DHT22;8550;52.596;13.320;2023-05-16T18:52:10;13.60;77.70
16867;DHT22;8550;52.596;13.320;2023-05-16T18:57:13;13.30;79.20
16867;DHT22;8550;52.596;13.320;2023-05-16T19:02:16;13.20;79.80
16867;DHT22;8550;52.596;13.320;2023-05-16T19:07:23;13.00;82.30
16867;DHT22;8550;52.596;13.320;2023-05-16T19:12:27;12.80;82.00
16867;DHT22;8550;52.596;13.320;2023-05-16T19:17:32;12.60;81.70
16867;DHT22;8550;52.596;13.320;2023-05-16T19:22:34;12.40;82.80
16867;DHT22;8550;52.596;13.320;2023-05-16T19:27:37;12.20;83.50
16867;DHT22;8550;52.596;13.320;2023-05-16T19:32:39;12.20;84.30
16867;DHT22;8550;52.596;13.320;2023-05-16T19:37:41;12.00;86.40
16867;DHT22;8550;52.596;13.320;2023-05-16T19:42:45;11.80;89.50
16867;DHT22;8550;52.596;13.320;2023-05-16T19:47:48;11.50;90.80
16867;DHT22;8550;52.596;13.320;2023-05-16T19:52:50;11.50;90.40
16867;DHT22;8550;52.596;13.320;2023-05-16T19:57:53;11.40;90.50
16867;DHT22;8550;52.596;13.320;2023-05-16T20:02:56;11.40;90.50
16867;DHT22;8550;52.596;13.320;2023-05-16T20:07:58;11.30;91.00
16867;DHT22;8550;52.596;13.320;2023-05-16T20:13:01;11.30;91.10
16867;DHT22;8550;52.596;13.320;2023-05-16T20:18:04;11.20;91.40
16867;DHT22;8550;52.596;13.320;2023-05-16T20:23:06;11.00;92.60
16867;DHT22;8550;52.596;13.320;2023-05-16T20:28:09;10.90;92.60
16867;DHT22;8550;52.596;13.320;2023-05-16T20:33:12;10.80;92.90
16867;DHT22;8550;52.596;13.320;2023-05-16T20:38:14;10.70;93.40
16867;DHT22;8550;52.596;13.320;2023-05-16T20:43:17;10.60;94.40
16867;DHT22;8550;52.596;13.320;2023-05-16T20:48:19;10.50;94.30
16867;DHT22;8550;52.596;13.320;2023-05-16T20:53:22;10.40;94.20
16867;DHT22;8550;52.596;13.320;2023-05-16T20:58:25;10.30;94.40
16867;DHT22;8550;52.596;13.320;2023-05-16T21:03:27;10.20;95.30
16867;DHT22;8550;52.596;13.320;2023-05-16T21:08:29;10.30;96.80
16867;DHT22;8550;52.596;13.320;2023-05-16T21:13:33;9.90;97.40
16867;DHT22;8550;52.596;13.320;2023-05-16T21:18:35;9.80;99.80
16867;DHT22;8550;52.596;13.320;2023-05-16T21:23:37;9.70;99.90
16867;DHT22;8550;52.596;13.320;2023-05-16T21:28:40;9.50;99.90
16867;DHT22;8550;52.596;13.320;2023-05-16T21:33:42;9.50;99.90
16867;DHT22;8550;52.596;13.320;2023-05-16T21:38:44;9.20;99.90
16867;DHT22;8550;52.596;13.320;2023-05-16T21:43:49;9.10;99.90
16867;DHT22;8550;52.596;13.320;2023-05-16T21:48:51;9.00;99.90
16867;DHT22;8550;52.596;13.320;2023-05-16T21:53:53;8.90;99.90
16867;DHT22;8550;52.596;13.320;2023-05-16T21:58:56;8.80;99.90
16867;DHT22;8550;52.596;13.320;2023-05-16T22:03:58;8.80;99.90
16867;DHT22;8550;52.596;13.320;2023-05-16T22:09:00;8.80;99.90
16867;DHT22;8550;52.596;13.320;2023-05-16T22:14:05;8.80;99.90
16867;DHT22;8550;52.596;13.320;2023-05-16T22:19:07;8.80;99.90
16867;DHT22;8550;52.596;13.320;2023-05-16T22:24:09;8.70;99.90
16867;DHT22;8550;52.596;13.320;2023-05-16T22:29:12;8.80;99.90
16867;DHT22;8550;52.596;13.320;2023-05-16T22:34:14;8.70;99.90
16867;DHT22;8550;52.596;13.320;2023-05-16T22:39:16;8.70;99.90
16867;DHT22;8550;52.596;13.320;2023-05-16T22:44:21;8.70;99.90
16867;DHT22;8550;52.596;13.320;2023-05-16T22:49:23;8.70;99.90
16867;DHT22;8550;52.596;13.320;2023-05-16T22:54:25;8.50;99.90
16867;DHT22;8550;52.596;13.320;2023-05-16T22:59:28;8.50;99.90
16867;DHT22;8550;52.596;13.320;2023-05-16T23:04:33;8.50;99.90
16867;DHT22;8550;52.596;13.320;2023-05-16T23:09:35;8.40;99.90
16867;DHT22;8550;52.596;13.320;2023-05-16T23:14:38;8.40;99.90
16867;DHT22;8550;52.596;13.320;2023-05-16T23:19:40;8.40;99.90
16867;DHT22;8550;52.596;13.320;2023-05-16T23:24:42;8.30;99.90
16867;DHT22;8550;52.596;13.320;2023-05-16T23:29:46;8.20;99.90
16867;DHT22;8550;52.596;13.320;2023-05-16T23:34:48;8.20;99.90
16867;DHT22;8550;52.596;13.320;2023-05-16T23:39:50;8.10;99.90
16867;DHT22;8550;52.596;13.320;2023-05-16T23:44:53;8.10;99.90
16867;DHT22;8550;52.596;13.320;2023-05-16T23:49:55;8.10;99.90
16867;DHT22;8550;52.596;13.320;2023-05-16T23:54:57;8.10;99.90
